sensor_id;sensor_type;location;lat;lon;timestamp;P1;durP1;ratioP1;P2;durP2;ratioP2
37051;SDS011;22964;52.272;13.356;2023-03-19T00:01:22;12.57;;;7.50;;
37051;SDS011;22964;52.272;13.356;2023-03-19T00:03:48;12.65;;;7.25;;
37051;SDS011;22964;52.272;13.356;2023-03-19T00:06:13;12.77;;;7.78;;
37051;SDS011;22964;52.272;13.356;2023-03-19T00:08:39;11.85;;;7.45;;
37051;SDS011;22964;52.272;13.356;2023-03-19T00:11:09;11.25;;;6.82;;
37051;SDS011;22964;52.272;13.356;2023-03-19T00:13:36;10.95;;;6.72;;
37051;SDS011;22964;52.272;13.356;2023-03-19T00:16:02;10.52;;;6.43;;
37051;SDS011;22964;52.272;13.356;2023-03-19T00:18:28;10.10;;;6.68;;
37051;SDS011;22964;52.272;13.356;2023-03-19T00:20:54;11.20;;;7.00;;
37051;SDS011;22964;52.272;13.356;2023-03-19T00:23:21;9.85;;;6.75;;
37051;SDS011;22964;52.272;13.356;2023-03-19T00:25:47;12.38;;;7.30;;
37051;SDS011;22964;52.272;13.356;2023-03-19T00:28:12;11.45;;;6.90;;
37051;SDS011;22964;52.272;13.356;2023-03-19T00:30:38;12.73;;;7.03;;
37051;SDS011;22964;52.272;13.356;2023-03-19T00:33:05;11.88;;;7.38;;
37051;SDS011;22964;52.272;13.356;2023-03-19T00:35:31;14.45;;;7.40;;
37051;SDS011;22964;52.272;13.356;2023-03-19T00:37:56;11.98;;;7.55;;
37051;SDS011;22964;52.272;13.356;2023-03-19T00:40:22;13.60;;;8.27;;
37051;SDS011;22964;52.272;13.356;2023-03-19T00:42:49;14.30;;;8.05;;
37051;SDS011;22964;52.272;13.356;2023-03-19T00:45:15;12.82;;;7.95;;
37051;SDS011;22964;52.272;13.356;2023-03-19T00:47:40;13.23;;;8.00;;
37051;SDS011;22964;52.272;13.356;2023-03-19T00:50:08;13.45;;;7.68;;
37051;SDS011;22964;52.272;13.356;2023-03-19T00:52:34;13.35;;;8.05;;
37051;SDS011;22964;52.272;13.356;2023-03-19T00:55:00;12.20;;;8.05;;
37051;SDS011;22964;52.272;13.356;2023-03-19T00:57:25;13.55;;;7.88;;
37051;SDS011;22964;52.272;13.356;2023-03-19T00:59:51;13.77;;;8.07;;
37051;SDS011;22964;52.272;13.356;2023-03-19T01:02:17;15.27;;;8.20;;
37051;SDS011;22964;52.272;13.356;2023-03-19T01:04:42;13.15;;;8.32;;
37051;SDS011;22964;52.272;13.356;2023-03-19T01:07:08;13.85;;;8.48;;
37051;SDS011;22964;52.272;13.356;2023-03-19T01:09:34;13.00;;;7.97;;
37051;SDS011;22964;52.272;13.356;2023-03-19T01:12:00;10.60;;;7.38;;
37051;SDS011;22964;52.272;13.356;2023-03-19T01:14:30;12.13;;;7.70;;
37051;SDS011;22964;52.272;13.356;2023-03-19T01:16:56;13.63;;;7.68;;
37051;SDS011;22964;52.272;13.356;2023-03-19T01:19:21;13.07;;;8.20;;
37051;SDS011;22964;52.272;13.356;2023-03-19T01:21:47;11.50;;;7.22;;
37051;SDS011;22964;52.272;13.356;2023-03-19T01:24:17;12.40;;;7.57;;
37051;SDS011;22964;52.272;13.356;2023-03-19T01:26:46;11.90;;;8.05;;
37051;SDS011;22964;52.272;13.356;2023-03-19T01:29:23;12.10;;;7.70;;
37051;SDS011;22964;52.272;13.356;2023-03-19T01:31:49;11.05;;;7.47;;
37051;SDS011;22964;52.272;13.356;2023-03-19T01:34:27;11.35;;;7.43;;
37051;SDS011;22964;52.272;13.356;2023-03-19T01:36:55;11.93;;;7.32;;
37051;SDS011;22964;52.272;13.356;2023-03-19T01:39:27;13.35;;;7.07;;
37051;SDS011;22964;52.272;13.356;2023-03-19T01:41:54;12.73;;;8.15;;
37051;SDS011;22964;52.272;13.356;2023-03-19T01:44:31;11.80;;;7.07;;
37051;SDS011;22964;52.272;13.356;2023-03-19T01:50:23;13.68;;;7.55;;
37051;SDS011;22964;52.272;13.356;2023-03-19T01:53:11;11.35;;;7.45;;
37051;SDS011;22964;52.272;13.356;2023-03-19T01:55:48;12.50;;;6.95;;
37051;SDS011;22964;52.272;13.356;2023-03-19T01:58:34;12.35;;;7.15;;
37051;SDS011;22964;52.272;13.356;2023-03-19T02:01:15;9.95;;;6.50;;
37051;SDS011;22964;52.272;13.356;2023-03-19T02:03:45;12.50;;;7.38;;
37051;SDS011;22964;52.272;13.356;2023-03-19T02:06:21;12.75;;;8.18;;
37051;SDS011;22964;52.272;13.356;2023-03-19T02:08:48;12.48;;;7.72;;
37051;SDS011;22964;52.272;13.356;2023-03-19T02:11:16;13.70;;;7.82;;
37051;SDS011;22964;52.272;13.356;2023-03-19T02:13:43;12.77;;;7.35;;
37051;SDS011;22964;52.272;13.356;2023-03-19T02:16:10;11.40;;;6.78;;
37051;SDS011;22964;52.272;13.356;2023-03-19T02:18:37;12.25;;;6.93;;
37051;SDS011;22964;52.272;13.356;2023-03-19T02:21:10;12.70;;;7.32;;
37051;SDS011;22964;52.272;13.356;2023-03-19T02:24:24;10.95;;;6.82;;
37051;SDS011;22964;52.272;13.356;2023-03-19T02:26:55;10.27;;;6.80;;
37051;SDS011;22964;52.272;13.356;2023-03-19T02:29:22;11.48;;;7.07;;
37051;SDS011;22964;52.272;13.356;2023-03-19T02:31:48;9.88;;;6.53;;
37051;SDS011;22964;52.272;13.356;2023-03-19T02:36:46;11.55;;;7.32;;
37051;SDS011;22964;52.272;13.356;2023-03-19T02:39:25;9.68;;;6.30;;
37051;SDS011;22964;52.272;13.356;2023-03-19T02:41:58;10.60;;;6.63;;
37051;SDS011;22964;52.272;13.356;2023-03-19T02:44:28;10.85;;;7.03;;
37051;SDS011;22964;52.272;13.356;2023-03-19T02:46:54;13.65;;;7.35;;
37051;SDS011;22964;52.272;13.356;2023-03-19T02:49:20;14.52;;;7.57;;
37051;SDS011;22964;52.272;13.356;2023-03-19T02:51:48;11.45;;;7.07;;
37051;SDS011;22964;52.272;13.356;2023-03-19T02:54:13;13.48;;;7.32;;
37051;SDS011;22964;52.272;13.356;2023-03-19T02:56:39;11.75;;;6.95;;
37051;SDS011;22964;52.272;13.356;2023-03-19T02:59:05;11.90;;;6.85;;
37051;SDS011;22964;52.272;13.356;2023-03-19T03:01:31;11.32;;;6.57;;
37051;SDS011;22964;52.272;13.356;2023-03-19T03:03:57;11.93;;;6.70;;
37051;SDS011;22964;52.272;13.356;2023-03-19T03:06:23;9.68;;;6.40;;
37051;SDS011;22964;52.272;13.356;2023-03-19T03:08:49;11.65;;;7.07;;
37051;SDS011;22964;52.272;13.356;2023-03-19T03:11:14;11.75;;;7.38;;
37051;SDS011;22964;52.272;13.356;2023-03-19T03:13:40;12.07;;;7.20;;
37051;SDS011;22964;52.272;13.356;2023-03-19T03:16:06;9.80;;;6.50;;
37051;SDS011;22964;52.272;13.356;2023-03-19T03:18:32;10.43;;;6.78;;
37051;SDS011;22964;52.272;13.356;2023-03-19T03:20:57;11.70;;;7.00;;
37051;SDS011;22964;52.272;13.356;2023-03-19T03:23:23;13.75;;;6.88;;
37051;SDS011;22964;52.272;13.356;2023-03-19T03:25:49;10.63;;;7.03;;
37051;SDS011;22964;52.272;13.356;2023-03-19T03:28:16;14.07;;;7.38;;
37051;SDS011;22964;52.272;13.356;2023-03-19T03:30:43;10.68;;;6.93;;
37051;SDS011;22964;52.272;13.356;2023-03-19T03:33:09;12.15;;;7.05;;
37051;SDS011;22964;52.272;13.356;2023-03-19T03:35:35;12.68;;;6.80;;
37051;SDS011;22964;52.272;13.356;2023-03-19T03:38:01;13.02;;;7.43;;
37051;SDS011;22964;52.272;13.356;2023-03-19T03:40:28;11.57;;;6.75;;
37051;SDS011;22964;52.272;13.356;2023-03-19T03:42:55;10.60;;;6.47;;
37051;SDS011;22964;52.272;13.356;2023-03-19T03:45:21;11.95;;;7.25;;
37051;SDS011;22964;52.272;13.356;2023-03-19T03:47:49;13.88;;;7.10;;
37051;SDS011;22964;52.272;13.356;2023-03-19T03:50:15;12.75;;;7.75;;
37051;SDS011;22964;52.272;13.356;2023-03-19T03:52:41;13.70;;;8.02;;
37051;SDS011;22964;52.272;13.356;2023-03-19T03:55:07;12.88;;;7.80;;
37051;SDS011;22964;52.272;13.356;2023-03-19T03:57:33;13.38;;;7.70;;
37051;SDS011;22964;52.272;13.356;2023-03-19T03:59:59;13.32;;;7.60;;
37051;SDS011;22964;52.272;13.356;2023-03-19T04:02:25;12.75;;;7.40;;
37051;SDS011;22964;52.272;13.356;2023-03-19T04:04:52;12.70;;;7.60;;
37051;SDS011;22964;52.272;13.356;2023-03-19T04:07:18;13.00;;;7.63;;
37051;SDS011;22964;52.272;13.356;2023-03-19T04:09:49;11.77;;;7.70;;
37051;SDS011;22964;52.272;13.356;2023-03-19T04:12:15;13.57;;;7.70;;
37051;SDS011;22964;52.272;13.356;2023-03-19T04:14:42;12.63;;;7.32;;
37051;SDS011;22964;52.272;13.356;2023-03-19T04:17:08;13.63;;;7.22;;
37051;SDS011;22964;52.272;13.356;2023-03-19T04:19:34;10.13;;;6.38;;
37051;SDS011;22964;52.272;13.356;2023-03-19T04:22:00;9.13;;;6.70;;
37051;SDS011;22964;52.272;13.356;2023-03-19T04:24:28;12.00;;;7.15;;
37051;SDS011;22964;52.272;13.356;2023-03-19T04:26:54;10.02;;;6.53;;
37051;SDS011;22964;52.272;13.356;2023-03-19T04:29:20;13.13;;;7.07;;
37051;SDS011;22964;52.272;13.356;2023-03-19T04:31:47;12.25;;;7.38;;
37051;SDS011;22964;52.272;13.356;2023-03-19T04:34:12;10.30;;;6.40;;
37051;SDS011;22964;52.272;13.356;2023-03-19T04:36:38;10.60;;;6.35;;
37051;SDS011;22964;52.272;13.356;2023-03-19T04:39:04;9.30;;;6.20;;
37051;SDS011;22964;52.272;13.356;2023-03-19T04:41:30;11.13;;;7.10;;
37051;SDS011;22964;52.272;13.356;2023-03-19T04:44:19;12.63;;;6.85;;
37051;SDS011;22964;52.272;13.356;2023-03-19T04:46:46;10.57;;;6.25;;
37051;SDS011;22964;52.272;13.356;2023-03-19T04:49:14;11.73;;;6.80;;
37051;SDS011;22964;52.272;13.356;2023-03-19T04:51:40;11.75;;;7.20;;
37051;SDS011;22964;52.272;13.356;2023-03-19T04:54:07;12.13;;;7.40;;
37051;SDS011;22964;52.272;13.356;2023-03-19T04:56:33;16.65;;;7.68;;
37051;SDS011;22964;52.272;13.356;2023-03-19T04:58:59;12.18;;;7.80;;
37051;SDS011;22964;52.272;13.356;2023-03-19T05:01:25;12.02;;;7.65;;
37051;SDS011;22964;52.272;13.356;2023-03-19T05:03:58;14.13;;;7.50;;
37051;SDS011;22964;52.272;13.356;2023-03-19T05:06:24;14.75;;;8.05;;
37051;SDS011;22964;52.272;13.356;2023-03-19T05:08:51;10.80;;;7.10;;
37051;SDS011;22964;52.272;13.356;2023-03-19T05:11:18;10.85;;;7.15;;
37051;SDS011;22964;52.272;13.356;2023-03-19T05:13:57;11.35;;;7.22;;
37051;SDS011;22964;52.272;13.356;2023-03-19T05:16:29;14.23;;;7.67;;
37051;SDS011;22964;52.272;13.356;2023-03-19T05:18:55;12.02;;;7.32;;
37051;SDS011;22964;52.272;13.356;2023-03-19T05:21:21;11.57;;;7.10;;
37051;SDS011;22964;52.272;13.356;2023-03-19T05:23:48;12.10;;;6.93;;
37051;SDS011;22964;52.272;13.356;2023-03-19T05:26:17;10.02;;;6.82;;
37051;SDS011;22964;52.272;13.356;2023-03-19T05:29:12;12.02;;;7.20;;
37051;SDS011;22964;52.272;13.356;2023-03-19T05:32:02;11.52;;;7.15;;
37051;SDS011;22964;52.272;13.356;2023-03-19T05:34:30;13.32;;;7.55;;
37051;SDS011;22964;52.272;13.356;2023-03-19T05:36:56;12.18;;;7.75;;
37051;SDS011;22964;52.272;13.356;2023-03-19T05:39:22;12.10;;;7.78;;
37051;SDS011;22964;52.272;13.356;2023-03-19T05:41:49;12.73;;;7.50;;
37051;SDS011;22964;52.272;13.356;2023-03-19T05:44:18;12.23;;;7.78;;
37051;SDS011;22964;52.272;13.356;2023-03-19T05:46:57;13.95;;;8.20;;
37051;SDS011;22964;52.272;13.356;2023-03-19T05:49:27;13.98;;;8.40;;
37051;SDS011;22964;52.272;13.356;2023-03-19T05:51:53;17.60;;;8.40;;
37051;SDS011;22964;52.272;13.356;2023-03-19T05:54:19;14.75;;;8.68;;
37051;SDS011;22964;52.272;13.356;2023-03-19T05:57:05;13.43;;;7.80;;
37051;SDS011;22964;52.272;13.356;2023-03-19T05:59:55;15.35;;;8.40;;
37051;SDS011;22964;52.272;13.356;2023-03-19T06:02:23;14.77;;;7.72;;
37051;SDS011;22964;52.272;13.356;2023-03-19T06:04:57;16.45;;;8.23;;
37051;SDS011;22964;52.272;13.356;2023-03-19T06:07:27;14.38;;;8.35;;
37051;SDS011;22964;52.272;13.356;2023-03-19T06:09:53;15.48;;;8.10;;
37051;SDS011;22964;52.272;13.356;2023-03-19T06:12:19;12.45;;;8.07;;
37051;SDS011;22964;52.272;13.356;2023-03-19T06:14:46;14.07;;;8.40;;
37051;SDS011;22964;52.272;13.356;2023-03-19T06:17:50;13.52;;;7.28;;
37051;SDS011;22964;52.272;13.356;2023-03-19T06:20:16;14.82;;;8.48;;
37051;SDS011;22964;52.272;13.356;2023-03-19T06:22:43;14.60;;;8.43;;
37051;SDS011;22964;52.272;13.356;2023-03-19T06:25:10;12.82;;;7.72;;
37051;SDS011;22964;52.272;13.356;2023-03-19T06:27:36;13.60;;;7.97;;
37051;SDS011;22964;52.272;13.356;2023-03-19T06:30:16;13.63;;;8.30;;
37051;SDS011;22964;52.272;13.356;2023-03-19T06:32:42;13.65;;;8.15;;
37051;SDS011;22964;52.272;13.356;2023-03-19T06:35:11;14.65;;;8.80;;
37051;SDS011;22964;52.272;13.356;2023-03-19T06:37:38;13.75;;;8.65;;
37051;SDS011;22964;52.272;13.356;2023-03-19T06:40:04;14.65;;;8.75;;
37051;SDS011;22964;52.272;13.356;2023-03-19T06:42:30;14.02;;;8.13;;
37051;SDS011;22964;52.272;13.356;2023-03-19T06:44:56;16.25;;;8.68;;
37051;SDS011;22964;52.272;13.356;2023-03-19T06:47:22;15.20;;;9.20;;
37051;SDS011;22964;52.272;13.356;2023-03-19T06:49:48;17.45;;;9.50;;
37051;SDS011;22964;52.272;13.356;2023-03-19T06:52:14;13.18;;;8.32;;
37051;SDS011;22964;52.272;13.356;2023-03-19T06:54:40;21.88;;;9.35;;
37051;SDS011;22964;52.272;13.356;2023-03-19T06:57:06;15.75;;;8.95;;
37051;SDS011;22964;52.272;13.356;2023-03-19T06:59:31;15.68;;;9.35;;
37051;SDS011;22964;52.272;13.356;2023-03-19T07:01:57;14.90;;;8.88;;
37051;SDS011;22964;52.272;13.356;2023-03-19T07:04:23;18.13;;;10.25;;
37051;SDS011;22964;52.272;13.356;2023-03-19T07:06:49;23.25;;;10.35;;
37051;SDS011;22964;52.272;13.356;2023-03-19T07:09:14;18.58;;;10.77;;
37051;SDS011;22964;52.272;13.356;2023-03-19T07:11:40;13.88;;;9.07;;
37051;SDS011;22964;52.272;13.356;2023-03-19T07:14:06;16.45;;;9.57;;
37051;SDS011;22964;52.272;13.356;2023-03-19T07:16:33;13.90;;;8.80;;
37051;SDS011;22964;52.272;13.356;2023-03-19T07:18:58;26.00;;;17.10;;
37051;SDS011;22964;52.272;13.356;2023-03-19T07:21:24;18.92;;;12.93;;
37051;SDS011;22964;52.272;13.356;2023-03-19T07:23:50;15.23;;;9.77;;
37051;SDS011;22964;52.272;13.356;2023-03-19T07:26:16;13.82;;;8.80;;
37051;SDS011;22964;52.272;13.356;2023-03-19T07:28:42;13.98;;;8.63;;
37051;SDS011;22964;52.272;13.356;2023-03-19T07:31:08;13.68;;;8.50;;
37051;SDS011;22964;52.272;13.356;2023-03-19T07:33:33;13.55;;;8.40;;
37051;SDS011;22964;52.272;13.356;2023-03-19T07:35:59;12.82;;;8.93;;
37051;SDS011;22964;52.272;13.356;2023-03-19T07:38:25;13.35;;;8.88;;
37051;SDS011;22964;52.272;13.356;2023-03-19T07:40:50;15.15;;;9.13;;
37051;SDS011;22964;52.272;13.356;2023-03-19T07:43:16;15.52;;;9.55;;
37051;SDS011;22964;52.272;13.356;2023-03-19T07:45:42;13.73;;;8.93;;
37051;SDS011;22964;52.272;13.356;2023-03-19T07:48:07;17.10;;;8.88;;
37051;SDS011;22964;52.272;13.356;2023-03-19T07:50:33;14.48;;;8.52;;
37051;SDS011;22964;52.272;13.356;2023-03-19T07:52:59;11.50;;;8.00;;
37051;SDS011;22964;52.272;13.356;2023-03-19T07:55:25;13.57;;;8.55;;
37051;SDS011;22964;52.272;13.356;2023-03-19T07:57:51;15.50;;;8.75;;
37051;SDS011;22964;52.272;13.356;2023-03-19T08:00:17;15.20;;;8.93;;
37051;SDS011;22964;52.272;13.356;2023-03-19T08:02:44;12.48;;;8.13;;
37051;SDS011;22964;52.272;13.356;2023-03-19T08:05:10;14.20;;;8.30;;
37051;SDS011;22964;52.272;13.356;2023-03-19T08:07:36;11.30;;;7.45;;
37051;SDS011;22964;52.272;13.356;2023-03-19T08:10:03;11.70;;;7.45;;
37051;SDS011;22964;52.272;13.356;2023-03-19T08:12:29;13.40;;;7.90;;
37051;SDS011;22964;52.272;13.356;2023-03-19T08:14:56;13.23;;;8.25;;
37051;SDS011;22964;52.272;13.356;2023-03-19T08:17:22;15.02;;;8.63;;
37051;SDS011;22964;52.272;13.356;2023-03-19T08:19:48;13.85;;;9.18;;
37051;SDS011;22964;52.272;13.356;2023-03-19T08:22:13;12.63;;;8.27;;
37051;SDS011;22964;52.272;13.356;2023-03-19T08:24:39;12.82;;;7.88;;
37051;SDS011;22964;52.272;13.356;2023-03-19T08:27:05;13.68;;;8.18;;
37051;SDS011;22964;52.272;13.356;2023-03-19T08:29:32;16.92;;;8.50;;
37051;SDS011;22964;52.272;13.356;2023-03-19T08:31:57;15.25;;;8.80;;
37051;SDS011;22964;52.272;13.356;2023-03-19T08:34:24;15.75;;;8.25;;
37051;SDS011;22964;52.272;13.356;2023-03-19T08:36:51;14.73;;;8.63;;
37051;SDS011;22964;52.272;13.356;2023-03-19T08:39:16;14.27;;;8.20;;
37051;SDS011;22964;52.272;13.356;2023-03-19T08:41:42;16.77;;;9.25;;
37051;SDS011;22964;52.272;13.356;2023-03-19T08:44:08;15.07;;;9.13;;
37051;SDS011;22964;52.272;13.356;2023-03-19T08:46:33;13.25;;;9.05;;
37051;SDS011;22964;52.272;13.356;2023-03-19T08:48:59;13.02;;;8.63;;
37051;SDS011;22964;52.272;13.356;2023-03-19T08:51:25;15.38;;;9.38;;
37051;SDS011;22964;52.272;13.356;2023-03-19T08:53:52;16.30;;;9.15;;
37051;SDS011;22964;52.272;13.356;2023-03-19T08:56:18;17.08;;;10.32;;
37051;SDS011;22964;52.272;13.356;2023-03-19T08:58:44;17.77;;;11.10;;
37051;SDS011;22964;52.272;13.356;2023-03-19T09:01:11;20.00;;;12.00;;
37051;SDS011;22964;52.272;13.356;2023-03-19T09:03:39;20.60;;;12.30;;
37051;SDS011;22964;52.272;13.356;2023-03-19T09:06:08;19.00;;;11.90;;
37051;SDS011;22964;52.272;13.356;2023-03-19T09:08:35;17.30;;;11.10;;
37051;SDS011;22964;52.272;13.356;2023-03-19T09:11:02;17.60;;;11.00;;
37051;SDS011;22964;52.272;13.356;2023-03-19T09:13:29;18.67;;;11.43;;
37051;SDS011;22964;52.272;13.356;2023-03-19T09:15:55;15.23;;;9.90;;
37051;SDS011;22964;52.272;13.356;2023-03-19T09:18:20;15.63;;;10.43;;
37051;SDS011;22964;52.272;13.356;2023-03-19T09:20:49;13.68;;;8.35;;
37051;SDS011;22964;52.272;13.356;2023-03-19T09:23:16;12.77;;;8.43;;
37051;SDS011;22964;52.272;13.356;2023-03-19T09:25:42;14.63;;;9.15;;
37051;SDS011;22964;52.272;13.356;2023-03-19T09:28:08;14.38;;;9.88;;
37051;SDS011;22964;52.272;13.356;2023-03-19T09:30:33;18.08;;;10.32;;
37051;SDS011;22964;52.272;13.356;2023-03-19T09:32:59;16.73;;;10.57;;
37051;SDS011;22964;52.272;13.356;2023-03-19T09:35:25;17.08;;;9.73;;
37051;SDS011;22964;52.272;13.356;2023-03-19T09:37:56;15.63;;;10.00;;
37051;SDS011;22964;52.272;13.356;2023-03-19T09:40:26;15.95;;;10.70;;
37051;SDS011;22964;52.272;13.356;2023-03-19T09:43:04;17.58;;;11.25;;
37051;SDS011;22964;52.272;13.356;2023-03-19T09:45:50;15.55;;;9.77;;
37051;SDS011;22964;52.272;13.356;2023-03-19T09:48:23;15.60;;;9.65;;
37051;SDS011;22964;52.272;13.356;2023-03-19T09:51:04;16.15;;;9.48;;
37051;SDS011;22964;52.272;13.356;2023-03-19T09:53:43;16.90;;;10.38;;
37051;SDS011;22964;52.272;13.356;2023-03-19T09:56:14;15.83;;;9.93;;
37051;SDS011;22964;52.272;13.356;2023-03-19T09:58:40;16.55;;;9.80;;
37051;SDS011;22964;52.272;13.356;2023-03-19T10:01:11;13.68;;;8.85;;
37051;SDS011;22964;52.272;13.356;2023-03-19T10:06:32;12.32;;;8.20;;
37051;SDS011;22964;52.272;13.356;2023-03-19T10:11:50;15.48;;;7.65;;
37051;SDS011;22964;52.272;13.356;2023-03-19T10:17:28;9.35;;;6.40;;
37051;SDS011;22964;52.272;13.356;2023-03-19T10:20:00;9.68;;;6.10;;
37051;SDS011;22964;52.272;13.356;2023-03-19T10:22:28;12.38;;;6.50;;
37051;SDS011;22964;52.272;13.356;2023-03-19T10:25:00;7.70;;;5.28;;
37051;SDS011;22964;52.272;13.356;2023-03-19T10:27:27;9.40;;;5.32;;
37051;SDS011;22964;52.272;13.356;2023-03-19T10:29:53;8.52;;;5.60;;
37051;SDS011;22964;52.272;13.356;2023-03-19T10:34:53;7.88;;;4.90;;
37051;SDS011;22964;52.272;13.356;2023-03-19T10:37:28;6.63;;;4.70;;
37051;SDS011;22964;52.272;13.356;2023-03-19T10:39:55;7.63;;;4.80;;
37051;SDS011;22964;52.272;13.356;2023-03-19T10:42:37;9.68;;;5.18;;
37051;SDS011;22964;52.272;13.356;2023-03-19T10:45:24;7.53;;;4.70;;
37051;SDS011;22964;52.272;13.356;2023-03-19T10:47:51;7.47;;;4.43;;
37051;SDS011;22964;52.272;13.356;2023-03-19T10:50:36;6.85;;;4.50;;
37051;SDS011;22964;52.272;13.356;2023-03-19T10:58:39;6.20;;;4.30;;
37051;SDS011;22964;52.272;13.356;2023-03-19T11:01:08;7.80;;;4.18;;
37051;SDS011;22964;52.272;13.356;2023-03-19T11:03:40;5.95;;;3.70;;
37051;SDS011;22964;52.272;13.356;2023-03-19T11:06:24;5.80;;;3.70;;
37051;SDS011;22964;52.272;13.356;2023-03-19T11:11:36;8.82;;;4.25;;
37051;SDS011;22964;52.272;13.356;2023-03-19T11:14:18;6.03;;;3.65;;
37051;SDS011;22964;52.272;13.356;2023-03-19T11:16:47;6.63;;;4.18;;
37051;SDS011;22964;52.272;13.356;2023-03-19T11:19:20;9.05;;;3.85;;
37051;SDS011;22964;52.272;13.356;2023-03-19T11:24:36;7.15;;;3.50;;
37051;SDS011;22964;52.272;13.356;2023-03-19T11:27:06;4.97;;;3.17;;
37051;SDS011;22964;52.272;13.356;2023-03-19T11:29:36;5.43;;;3.10;;
37051;SDS011;22964;52.272;13.356;2023-03-19T11:32:26;6.15;;;3.28;;
37051;SDS011;22964;52.272;13.356;2023-03-19T11:35:16;6.25;;;3.30;;
37051;SDS011;22964;52.272;13.356;2023-03-19T11:37:58;5.60;;;3.40;;
37051;SDS011;22964;52.272;13.356;2023-03-19T11:40:28;6.90;;;3.35;;
37051;SDS011;22964;52.272;13.356;2023-03-19T11:43:08;6.30;;;3.40;;
37051;SDS011;22964;52.272;13.356;2023-03-19T11:46:00;5.90;;;3.50;;
37051;SDS011;22964;52.272;13.356;2023-03-19T11:48:42;6.97;;;3.60;;
37051;SDS011;22964;52.272;13.356;2023-03-19T11:51:32;7.00;;;4.18;;
37051;SDS011;22964;52.272;13.356;2023-03-19T11:54:04;7.35;;;3.65;;
37051;SDS011;22964;52.272;13.356;2023-03-19T11:57:03;6.53;;;4.10;;
37051;SDS011;22964;52.272;13.356;2023-03-19T12:16:00;7.10;;;3.47;;
37051;SDS011;22964;52.272;13.356;2023-03-19T12:21:19;6.32;;;3.70;;
37051;SDS011;22964;52.272;13.356;2023-03-19T12:24:05;7.38;;;3.95;;
37051;SDS011;22964;52.272;13.356;2023-03-19T12:29:58;6.38;;;3.80;;
37051;SDS011;22964;52.272;13.356;2023-03-19T12:32:32;8.10;;;3.50;;
37051;SDS011;22964;52.272;13.356;2023-03-19T12:35:13;6.10;;;2.92;;
37051;SDS011;22964;52.272;13.356;2023-03-19T12:37:50;6.15;;;3.45;;
37051;SDS011;22964;52.272;13.356;2023-03-19T12:40:34;4.97;;;3.05;;
37051;SDS011;22964;52.272;13.356;2023-03-19T12:43:03;4.28;;;3.20;;
37051;SDS011;22964;52.272;13.356;2023-03-19T12:45:37;5.32;;;3.13;;
37051;SDS011;22964;52.272;13.356;2023-03-19T12:50:38;5.60;;;3.50;;
37051;SDS011;22964;52.272;13.356;2023-03-19T12:53:09;5.55;;;3.10;;
37051;SDS011;22964;52.272;13.356;2023-03-19T12:55:44;6.18;;;3.25;;
37051;SDS011;22964;52.272;13.356;2023-03-19T12:58:18;5.43;;;3.40;;
37051;SDS011;22964;52.272;13.356;2023-03-19T13:01:11;7.00;;;3.30;;
37051;SDS011;22964;52.272;13.356;2023-03-19T13:06:22;5.13;;;3.42;;
37051;SDS011;22964;52.272;13.356;2023-03-19T13:09:00;5.43;;;3.20;;
37051;SDS011;22964;52.272;13.356;2023-03-19T13:11:56;4.45;;;3.10;;
37051;SDS011;22964;52.272;13.356;2023-03-19T13:17:23;5.53;;;3.10;;
37051;SDS011;22964;52.272;13.356;2023-03-19T13:23:23;6.43;;;3.40;;
37051;SDS011;22964;52.272;13.356;2023-03-19T13:25:51;5.00;;;3.22;;
37051;SDS011;22964;52.272;13.356;2023-03-19T13:28:27;6.15;;;3.60;;
37051;SDS011;22964;52.272;13.356;2023-03-19T13:30:59;6.07;;;3.63;;
37051;SDS011;22964;52.272;13.356;2023-03-19T13:33:47;7.68;;;4.10;;
37051;SDS011;22964;52.272;13.356;2023-03-19T13:36:36;6.20;;;3.97;;
37051;SDS011;22964;52.272;13.356;2023-03-19T13:39:03;8.23;;;3.92;;
37051;SDS011;22964;52.272;13.356;2023-03-19T13:46:51;5.75;;;3.50;;
37051;SDS011;22964;52.272;13.356;2023-03-19T13:54:59;5.95;;;3.78;;
37051;SDS011;22964;52.272;13.356;2023-03-19T13:57:58;5.75;;;3.80;;
37051;SDS011;22964;52.272;13.356;2023-03-19T14:01:02;5.95;;;3.50;;
37051;SDS011;22964;52.272;13.356;2023-03-19T14:03:29;7.35;;;3.90;;
37051;SDS011;22964;52.272;13.356;2023-03-19T14:05:58;5.25;;;3.70;;
37051;SDS011;22964;52.272;13.356;2023-03-19T14:08:28;6.80;;;3.92;;
37051;SDS011;22964;52.272;13.356;2023-03-19T14:10:59;5.57;;;3.88;;
37051;SDS011;22964;52.272;13.356;2023-03-19T14:13:28;5.97;;;4.30;;
37051;SDS011;22964;52.272;13.356;2023-03-19T14:16:05;6.97;;;4.30;;
37051;SDS011;22964;52.272;13.356;2023-03-19T14:18:38;9.27;;;4.50;;
37051;SDS011;22964;52.272;13.356;2023-03-19T14:21:08;9.07;;;4.18;;
37051;SDS011;22964;52.272;13.356;2023-03-19T14:23:38;7.55;;;4.18;;
37051;SDS011;22964;52.272;13.356;2023-03-19T14:28:52;6.70;;;4.00;;
37051;SDS011;22964;52.272;13.356;2023-03-19T14:31:23;7.43;;;4.10;;
37051;SDS011;22964;52.272;13.356;2023-03-19T14:33:52;6.85;;;4.03;;
37051;SDS011;22964;52.272;13.356;2023-03-19T14:36:23;6.13;;;3.97;;
37051;SDS011;22964;52.272;13.356;2023-03-19T14:41:22;7.18;;;4.10;;
37051;SDS011;22964;52.272;13.356;2023-03-19T14:53:01;6.10;;;3.70;;
37051;SDS011;22964;52.272;13.356;2023-03-19T14:55:35;6.18;;;3.75;;
37051;SDS011;22964;52.272;13.356;2023-03-19T14:58:02;6.32;;;3.60;;
37051;SDS011;22964;52.272;13.356;2023-03-19T15:00:36;6.97;;;3.70;;
37051;SDS011;22964;52.272;13.356;2023-03-19T15:05:56;6.60;;;4.00;;
37051;SDS011;22964;52.272;13.356;2023-03-19T15:08:27;6.43;;;3.43;;
37051;SDS011;22964;52.272;13.356;2023-03-19T15:19:26;8.02;;;4.60;;
37051;SDS011;22964;52.272;13.356;2023-03-19T15:25:07;7.40;;;5.00;;
37051;SDS011;22964;52.272;13.356;2023-03-19T15:27:35;7.28;;;5.35;;
37051;SDS011;22964;52.272;13.356;2023-03-19T15:30:01;9.75;;;5.03;;
37051;SDS011;22964;52.272;13.356;2023-03-19T15:34:57;7.15;;;4.55;;
37051;SDS011;22964;52.272;13.356;2023-03-19T15:37:24;8.90;;;5.15;;
37051;SDS011;22964;52.272;13.356;2023-03-19T15:39:52;8.15;;;4.85;;
37051;SDS011;22964;52.272;13.356;2023-03-19T15:42:20;9.10;;;4.93;;
37051;SDS011;22964;52.272;13.356;2023-03-19T15:44:50;9.30;;;4.82;;
37051;SDS011;22964;52.272;13.356;2023-03-19T15:47:20;8.45;;;4.65;;
37051;SDS011;22964;52.272;13.356;2023-03-19T15:49:54;7.18;;;4.43;;
37051;SDS011;22964;52.272;13.356;2023-03-19T15:52:26;7.78;;;4.80;;
37051;SDS011;22964;52.272;13.356;2023-03-19T15:54:55;9.80;;;4.70;;
37051;SDS011;22964;52.272;13.356;2023-03-19T15:57:21;7.30;;;5.05;;
37051;SDS011;22964;52.272;13.356;2023-03-19T15:59:50;10.20;;;5.13;;
37051;SDS011;22964;52.272;13.356;2023-03-19T16:02:31;7.95;;;4.93;;
37051;SDS011;22964;52.272;13.356;2023-03-19T16:04:58;9.02;;;4.78;;
37051;SDS011;22964;52.272;13.356;2023-03-19T16:07:26;7.68;;;4.82;;
37051;SDS011;22964;52.272;13.356;2023-03-19T16:09:57;8.85;;;5.03;;
37051;SDS011;22964;52.272;13.356;2023-03-19T16:12:39;8.77;;;5.85;;
37051;SDS011;22964;52.272;13.356;2023-03-19T16:15:22;8.95;;;5.72;;
37051;SDS011;22964;52.272;13.356;2023-03-19T16:20:40;10.03;;;6.30;;
37051;SDS011;22964;52.272;13.356;2023-03-19T16:23:08;8.45;;;5.35;;
37051;SDS011;22964;52.272;13.356;2023-03-19T16:25:42;10.18;;;5.65;;
37051;SDS011;22964;52.272;13.356;2023-03-19T16:28:16;9.65;;;5.80;;
37051;SDS011;22964;52.272;13.356;2023-03-19T16:30:45;9.18;;;5.70;;